Terminal Aerodrome Forecast
Issued by NWS

Home | Current Version | Previous Version | Text Only | Print | Product List | Glossary On
Versions: 1 2 3 4 5 6 7 8 9 10 11 12 13 14 15 16 17 18 19 20 21 22 23 24 25 26
000
FTUS42 KGSP 210316 AAC
TAFHKY
TAF AMD
KHKY 210316Z 2103/2124 08004KT 6SM BR BKN080
      TEMPO 2103/2105 2SM BR
     FM210500 VRB02KT 1SM BR BKN030
     FM210900 18003KT 1SM BR OVC006
     FM211100 17003KT 1/2SM FG OVC003
     FM211400 16003KT 1SM BR OVC004
     FM211600 21005KT 3SM BR OVC007
     FM211800 20006KT P6SM BKN015=

USA.gov is the U.S. government's official web portal to all federal, state and local government web resources and services.